createdAt,value
2018-09-27T00:00:56.271Z,102714.17
2018-09-27T00:03:24.450Z,102714.65
2018-09-27T00:05:52.639Z,102705.37
2018-09-27T00:08:20.794Z,102706.88
2018-09-27T00:10:48.946Z,102697.98
2018-09-27T00:13:17.102Z,102701.66
2018-09-27T00:15:45.279Z,102697.00
2018-09-27T00:18:13.444Z,102696.16
2018-09-27T00:20:41.607Z,102703.80
2018-09-27T00:23:09.760Z,102699.23
2018-09-27T00:25:37.951Z,102705.48
2018-09-27T00:28:06.114Z,102701.89
2018-09-27T00:30:34.280Z,102703.21
2018-09-27T00:33:02.439Z,102698.38
2018-09-27T00:35:30.602Z,102696.08
2018-09-27T00:37:58.862Z,102690.10
2018-09-27T00:40:27.015Z,102690.10
2018-09-27T00:42:55.178Z,102689.84
2018-09-27T00:45:23.363Z,102687.83
2018-09-27T00:47:51.527Z,102684.23
2018-09-27T00:50:19.732Z,102689.16
2018-09-27T00:52:47.890Z,102685.57
2018-09-27T00:55:16.047Z,102687.84
2018-09-27T00:57:44.203Z,102684.24
2018-09-27T01:00:12.404Z,102678.09
2018-09-27T01:02:40.587Z,102674.03
2018-09-27T01:05:08.740Z,102673.64
2018-09-27T01:07:36.909Z,102670.61
2018-09-27T01:10:05.167Z,102665.23
2018-09-27T01:12:33.330Z,102670.52
2018-09-27T01:15:01.494Z,102673.47
2018-09-27T01:17:29.647Z,102669.11
2018-09-27T01:19:57.799Z,102669.97
2018-09-27T01:22:25.958Z,102680.09
2018-09-27T01:24:54.127Z,102671.38
2018-09-27T01:27:22.287Z,102677.63
2018-09-27T01:29:50.461Z,102674.97
2018-09-27T01:32:18.615Z,102677.70
2018-09-27T01:34:46.781Z,102677.41
2018-09-27T01:37:15.043Z,102677.62
2018-09-27T01:39:43.199Z,102665.78
2018-09-27T01:42:11.352Z,102659.80
2018-09-27T01:44:39.498Z,102657.41
2018-09-27T01:47:07.714Z,102658.09
2018-09-27T01:49:35.858Z,102659.03
2018-09-27T01:52:04.047Z,102653.34
2018-09-27T01:54:32.211Z,102651.55
2018-09-27T01:57:00.358Z,102649.16
2018-09-27T01:59:28.541Z,102651.81
2018-09-27T02:01:56.711Z,102645.11
2018-09-27T02:04:24.867Z,102649.93
2018-09-27T02:06:53.031Z,102651.73
2018-09-27T02:09:21.198Z,102649.08
2018-09-27T02:11:49.352Z,102651.81
2018-09-27T02:14:17.516Z,102644.04
2018-09-27T02:16:45.687Z,102647.71
2018-09-27T02:19:13.844Z,102644.88
2018-09-27T02:21:42.014Z,102644.59
2018-09-27T02:24:10.195Z,102641.64
2018-09-27T02:26:38.371Z,102639.84
2018-09-27T02:29:06.518Z,102639.45
2018-09-27T02:31:34.683Z,102641.72
2018-09-27T02:34:02.843Z,102638.14
2018-09-27T02:36:31.020Z,102634.16
2018-09-27T02:38:59.190Z,102640.02
2018-09-27T02:41:27.399Z,102639.63
2018-09-27T02:43:55.546Z,102642.75
2018-09-27T02:46:23.709Z,102642.45
2018-09-27T02:48:51.870Z,102637.63
2018-09-27T02:51:20.011Z,102634.79
2018-09-27T02:53:48.171Z,102635.43
2018-09-27T02:56:16.335Z,102630.47
2018-09-27T02:58:44.494Z,102625.09
2018-09-27T03:01:12.642Z,102627.74
2018-09-27T03:03:40.826Z,102622.92
2018-09-27T03:06:09.033Z,102620.44
2018-09-27T03:08:37.203Z,102635.00
2018-09-27T03:11:05.370Z,102632.81
2018-09-27T03:13:33.571Z,102625.94
2018-09-27T03:16:01.735Z,102616.28
2018-09-27T03:18:29.907Z,102612.87
2018-09-27T03:20:58.155Z,102606.59
2018-09-27T03:23:26.238Z,102606.02
2018-09-27T03:25:54.489Z,102603.92
2018-09-27T03:28:22.651Z,102597.31
2018-09-27T03:30:51.151Z,102599.75
2018-09-27T03:33:19.340Z,102591.35
2018-09-27T03:35:47.499Z,102586.64
2018-09-27T03:38:15.655Z,102590.48
2018-09-27T03:40:43.888Z,102591.50
2018-09-27T03:43:12.007Z,102586.84
2018-09-27T03:45:40.162Z,102581.92
2018-09-27T03:48:08.328Z,102579.13
2018-09-27T03:50:36.491Z,102574.62
2018-09-27T03:53:04.656Z,102569.46
2018-09-27T03:55:32.881Z,102566.23
2018-09-27T03:58:01.118Z,102564.36
2018-09-27T04:00:29.319Z,102565.67
2018-09-27T04:02:57.487Z,102564.83
2018-09-27T04:05:25.647Z,102563.23
2018-09-27T04:07:53.800Z,102561.52
2018-09-27T04:10:21.959Z,102561.31
2018-09-27T04:12:50.140Z,102563.34
2018-09-27T04:15:18.298Z,102560.31
2018-09-27T04:17:46.519Z,102560.87
2018-09-27T04:20:14.695Z,102557.84
2018-09-27T04:22:42.863Z,102561.92
2018-09-27T04:25:11.078Z,102560.12
2018-09-27T04:27:39.237Z,102556.44
2018-09-27T04:30:07.671Z,102556.44
2018-09-27T04:32:38.872Z,102552.84
2018-09-27T04:35:07.051Z,102559.28
2018-09-27T04:37:35.283Z,102563.33
2018-09-27T04:40:03.452Z,102563.48
2018-09-27T04:42:31.659Z,102562.80
2018-09-27T04:44:59.824Z,102561.72
2018-09-27T04:47:27.990Z,102560.79
2018-09-27T04:49:56.151Z,102568.39
2018-09-27T04:52:24.342Z,102564.18
2018-09-27T04:54:52.527Z,102567.67
2018-09-27T04:57:20.699Z,102565.75
2018-09-27T04:59:48.875Z,102566.08
2018-09-27T05:02:17.076Z,102565.41
2018-09-27T05:04:45.262Z,102555.44
2018-09-27T05:07:13.420Z,102560.89
2018-09-27T05:09:41.601Z,102558.02
2018-09-27T05:12:09.754Z,102551.19
2018-09-27T05:14:37.927Z,102558.07
2018-09-27T05:17:06.086Z,102559.00
2018-09-27T05:19:34.247Z,102559.31
2018-09-27T05:22:02.413Z,102561.21
2018-09-27T05:24:30.586Z,102566.56
2018-09-27T05:26:58.758Z,102563.37
2018-09-27T05:29:26.966Z,102559.80
2018-09-27T05:31:55.136Z,102554.26
2018-09-27T05:34:23.331Z,102553.24
2018-09-27T05:36:51.511Z,102549.50
2018-09-27T05:39:19.688Z,102557.73
2018-09-27T05:41:47.878Z,102553.30
2018-09-27T05:44:16.032Z,102547.08
2018-09-27T05:46:44.216Z,102546.60
2018-09-27T05:49:12.397Z,102548.39
2018-09-27T05:51:40.621Z,102546.69
2018-09-27T05:54:08.747Z,102542.64
2018-09-27T05:56:36.955Z,102540.30
2018-09-27T05:59:05.135Z,102535.74
2018-09-27T06:01:33.295Z,102535.83
2018-09-27T06:04:01.455Z,102538.39
2018-09-27T06:06:29.620Z,102538.47
2018-09-27T06:08:57.794Z,102533.00
2018-09-27T06:11:26.011Z,102531.76
2018-09-27T06:13:54.159Z,102533.25
2018-09-27T06:16:22.350Z,102534.18
2018-09-27T06:18:50.887Z,102528.42
2018-09-27T06:21:19.051Z,102526.63
2018-09-27T06:23:47.242Z,102522.75
2018-09-27T06:26:15.406Z,102516.61
2018-09-27T06:28:43.582Z,102516.06
2018-09-27T06:31:11.764Z,102515.51
2018-09-27T06:33:39.995Z,102521.95
2018-09-27T06:36:08.099Z,102516.49
2018-09-27T06:38:36.331Z,102515.83
2018-09-27T06:41:04.473Z,102518.22
2018-09-27T06:43:32.620Z,102513.61
2018-09-27T06:46:00.783Z,102516.83
2018-09-27T06:48:29.003Z,102520.33
2018-09-27T06:50:57.170Z,102516.73
2018-09-27T06:53:25.366Z,102517.13
2018-09-27T06:55:53.581Z,102527.70
2018-09-27T06:58:21.976Z,102525.91
2018-09-27T07:00:50.281Z,102528.94
2018-09-27T07:03:18.989Z,102530.66
2018-09-27T07:05:47.246Z,102524.42
2018-09-27T07:08:15.473Z,102530.48
2018-09-27T07:10:43.731Z,102528.13
2018-09-27T07:13:12.089Z,102523.61
2018-09-27T07:15:40.480Z,102522.94
2018-09-27T07:18:08.675Z,102517.47
2018-09-27T07:20:36.910Z,102518.16
2018-09-27T07:23:05.130Z,102517.90
2018-09-27T07:25:33.386Z,102513.64
2018-09-27T07:28:01.662Z,102511.02
2018-09-27T07:30:29.906Z,102502.34
2018-09-27T07:32:58.151Z,102498.46
2018-09-27T07:35:26.728Z,102501.41
2018-09-27T07:37:55.008Z,102507.67
2018-09-27T07:40:23.281Z,102509.08
2018-09-27T07:42:51.541Z,102503.51
2018-09-27T07:45:19.805Z,102504.09
2018-09-27T07:47:48.081Z,102504.64
2018-09-27T07:50:16.308Z,102503.14
2018-09-27T07:52:44.571Z,102504.19
2018-09-27T07:55:12.837Z,102509.95
2018-09-27T07:57:41.093Z,102503.44
2018-09-27T08:00:09.513Z,102502.30
2018-09-27T08:02:37.859Z,102496.73
2018-09-27T08:05:06.017Z,102496.92
2018-09-27T08:07:34.287Z,102493.52
2018-09-27T08:10:02.536Z,102493.97
2018-09-27T08:12:30.778Z,102498.05
2018-09-27T08:14:59.014Z,102495.02
2018-09-27T08:17:27.332Z,102486.66
2018-09-27T08:19:55.632Z,102491.20
2018-09-27T08:22:23.928Z,102490.79
2018-09-27T08:24:52.286Z,102482.64
2018-09-27T08:27:20.566Z,102476.67
2018-09-27T08:29:48.921Z,102482.16
2018-09-27T08:32:17.261Z,102477.86
2018-09-27T08:34:45.505Z,102481.08
2018-09-27T08:37:13.771Z,102471.50
2018-09-27T08:39:42.048Z,102465.05
2018-09-27T08:42:10.407Z,102457.14
2018-09-27T08:44:38.803Z,102453.34
2018-09-27T08:47:06.989Z,102456.17
2018-09-27T08:49:35.238Z,102452.47
2018-09-27T08:52:03.514Z,102457.45
2018-09-27T08:54:31.808Z,102444.83
2018-09-27T08:57:00.082Z,102443.20
2018-09-27T08:59:28.340Z,102431.53
2018-09-27T09:01:56.595Z,102434.13
2018-09-27T09:04:24.856Z,102435.73
2018-09-27T09:06:53.101Z,102430.12
2018-09-27T09:09:21.339Z,102437.37
2018-09-27T09:11:49.588Z,102434.92
2018-09-27T09:14:17.863Z,102425.42
2018-09-27T09:16:46.093Z,102421.61
2018-09-27T09:19:14.565Z,102416.80
2018-09-27T09:21:42.899Z,102420.75
2018-09-27T09:24:11.121Z,102412.70
2018-09-27T09:26:39.406Z,102415.31
2018-09-27T09:29:07.800Z,102412.23
2018-09-27T09:31:36.118Z,102404.19
2018-09-27T09:34:04.387Z,102401.23
2018-09-27T09:36:32.661Z,102400.22
2018-09-27T09:39:01.050Z,102403.42
2018-09-27T09:41:29.322Z,102391.15
2018-09-27T09:43:57.592Z,102396.45
2018-09-27T09:46:26.066Z,102391.06
2018-09-27T09:48:54.336Z,102390.44
2018-09-27T09:51:22.586Z,102381.89
2018-09-27T09:53:50.834Z,102383.17
2018-09-27T09:56:19.091Z,102375.81
2018-09-27T09:58:47.374Z,102369.80
2018-09-27T10:01:15.641Z,102361.83
2018-09-27T10:03:43.938Z,102361.22
2018-09-27T10:06:12.218Z,102355.63
2018-09-27T10:08:40.504Z,102357.77
2018-09-27T10:11:08.797Z,102353.23
2018-09-27T10:13:37.117Z,102358.64
2018-09-27T10:16:05.394Z,102349.88
2018-09-27T10:18:33.652Z,102345.42
2018-09-27T10:21:01.938Z,102348.48
2018-09-27T10:23:30.238Z,102336.01
2018-09-27T10:25:58.577Z,102331.87
2018-09-27T10:28:26.821Z,102327.02
2018-09-27T10:30:55.127Z,102322.78
2018-09-27T10:33:23.517Z,102317.35
2018-09-27T10:35:52.036Z,102317.95
2018-09-27T10:38:20.299Z,102311.80
2018-09-27T10:40:48.655Z,102304.98
2018-09-27T10:43:16.961Z,102308.50
2018-09-27T10:45:45.205Z,102305.36
2018-09-27T10:48:13.479Z,102305.30
2018-09-27T10:50:41.733Z,102299.78
2018-09-27T10:53:10.105Z,102292.57
2018-09-27T10:55:38.402Z,102294.09
2018-09-27T10:58:07.418Z,102293.30
2018-09-27T11:00:35.667Z,102283.39
2018-09-27T11:03:03.913Z,102284.88
2018-09-27T11:05:32.216Z,102273.68
2018-09-27T11:08:00.498Z,102265.30
2018-09-27T11:10:34.475Z,102266.33
2018-09-27T11:13:02.818Z,102267.29
2018-09-27T11:15:31.109Z,102263.55
2018-09-27T11:17:59.449Z,102258.61
2018-09-27T11:20:27.708Z,102248.34
2018-09-27T11:22:55.990Z,102238.03
2018-09-27T11:25:24.264Z,102240.45
2018-09-27T11:27:52.513Z,102232.02
2018-09-27T11:30:26.131Z,102227.55
2018-09-27T11:32:54.556Z,102219.27
2018-09-27T11:35:22.823Z,102221.66
2018-09-27T11:37:51.101Z,102208.28
2018-09-27T11:40:19.563Z,102202.66
2018-09-27T11:42:47.890Z,102202.07
2018-09-27T11:45:16.239Z,102197.77
2018-09-27T11:47:44.530Z,102186.90
2018-09-27T11:50:12.882Z,102185.80
2018-09-27T11:52:41.590Z,102183.80
2018-09-27T11:55:10.265Z,102175.97
2018-09-27T11:57:38.563Z,102166.75
2018-09-27T12:00:07.732Z,102167.66
2018-09-27T12:02:35.971Z,102162.80
2018-09-27T12:05:04.422Z,102162.20
2018-09-27T12:07:33.479Z,102158.48
2018-09-27T12:10:02.209Z,102146.39
2018-09-27T12:12:30.584Z,102141.41
2018-09-27T12:14:58.853Z,102134.67
2018-09-27T12:17:27.149Z,102126.08
2018-09-27T12:19:55.438Z,102123.55
2018-09-27T12:22:23.628Z,102114.80
2018-09-27T12:24:51.889Z,102121.80
2018-09-27T12:27:20.237Z,102112.36
2018-09-27T12:29:48.476Z,102106.56
2018-09-27T12:32:16.729Z,102099.34
2018-09-27T12:34:44.991Z,102093.95
2018-09-27T12:37:13.253Z,102084.13
2018-09-27T12:39:41.598Z,102080.14
2018-09-27T12:42:09.964Z,102065.28
2018-09-27T12:44:38.013Z,102065.50
2018-09-27T12:47:06.256Z,102062.88
2018-09-27T12:49:34.512Z,102059.50
2018-09-27T12:52:02.988Z,102057.08
2018-09-27T12:54:31.102Z,102040.67
2018-09-27T12:56:59.473Z,102038.69
2018-09-27T12:59:27.725Z,102025.73
2018-09-27T13:01:56.119Z,102026.44
2018-09-27T13:04:24.277Z,102017.38
2018-09-27T13:06:52.549Z,102026.69
2018-09-27T13:09:20.974Z,102023.79
2018-09-27T13:11:49.184Z,102007.33
2018-09-27T13:14:17.523Z,102002.55
2018-09-27T13:16:45.790Z,101984.05
2018-09-27T13:19:14.045Z,101990.78
2018-09-27T13:21:42.326Z,101982.83
2018-09-27T13:24:10.568Z,101978.08
2018-09-27T13:26:38.864Z,101970.13
2018-09-27T13:29:07.041Z,101962.94
2018-09-27T13:31:35.365Z,101961.67
2018-09-27T13:34:03.630Z,101960.44
2018-09-27T13:36:31.905Z,101959.20
2018-09-27T13:39:00.192Z,101960.27
2018-09-27T13:41:28.480Z,101958.27
2018-09-27T13:43:56.789Z,101937.97
2018-09-27T13:46:25.102Z,101945.37
2018-09-27T13:48:53.358Z,101953.27
2018-09-27T13:51:21.606Z,101941.25
2018-09-27T13:53:49.935Z,101937.89
2018-09-27T13:56:18.267Z,101931.53
2018-09-27T13:58:46.622Z,101934.94
2018-09-27T14:01:14.981Z,101920.70
2018-09-27T14:03:43.225Z,101920.41
2018-09-27T14:06:11.531Z,101919.67
2018-09-27T14:08:39.763Z,101915.37
2018-09-27T14:11:08.013Z,101910.09
2018-09-27T14:13:36.262Z,101908.16
2018-09-27T14:16:04.516Z,101899.31
2018-09-27T14:18:32.762Z,101899.55
2018-09-27T14:21:01.155Z,101896.19
2018-09-27T14:23:29.372Z,101890.81
2018-09-27T14:25:57.604Z,101890.14
2018-09-27T14:28:25.846Z,101878.04
2018-09-27T14:30:54.117Z,101882.41
2018-09-27T14:33:22.367Z,101872.16
2018-09-27T14:35:50.671Z,101875.73
2018-09-27T14:38:18.850Z,101874.38
2018-09-27T14:40:47.097Z,101869.00
2018-09-27T14:43:15.348Z,101869.68
2018-09-27T14:45:43.612Z,101866.02
2018-09-27T14:48:11.815Z,101858.96
2018-09-27T14:50:40.028Z,101859.66
2018-09-27T14:53:08.306Z,101848.27
2018-09-27T14:55:36.532Z,101852.97
2018-09-27T14:58:05.013Z,101846.08
2018-09-27T15:00:33.343Z,101849.09
2018-09-27T15:03:01.679Z,101844.22
2018-09-27T15:05:29.877Z,101841.86
2018-09-27T15:07:58.102Z,101833.63
2018-09-27T15:10:26.487Z,101836.99
2018-09-27T15:12:54.634Z,101829.46
2018-09-27T15:15:22.880Z,101831.47
2018-09-27T15:17:51.111Z,101827.77
2018-09-27T15:20:19.432Z,101827.59
2018-09-27T15:22:47.880Z,101826.94
2018-09-27T15:25:16.208Z,101827.44
2018-09-27T15:27:44.414Z,101825.25
2018-09-27T15:30:13.921Z,101823.39
2018-09-27T15:32:42.233Z,101820.20
2018-09-27T15:35:11.661Z,101822.72
2018-09-27T15:37:43.510Z,101816.20
2018-09-27T15:40:11.740Z,101816.37
2018-09-27T15:42:40.079Z,101809.98
2018-09-27T15:45:08.322Z,101808.97
2018-09-27T15:47:36.580Z,101804.42
2018-09-27T15:50:04.951Z,101804.95
2018-09-27T15:52:33.209Z,101794.88
2018-09-27T15:55:01.543Z,101796.88
2018-09-27T15:57:29.747Z,101797.22
2018-09-27T15:59:58.130Z,101792.53
2018-09-27T16:02:26.401Z,101789.83
2018-09-27T16:04:54.625Z,101788.65
2018-09-27T16:07:22.932Z,101786.81
2018-09-27T16:09:51.179Z,101780.38
2018-09-27T16:12:19.466Z,101782.87
2018-09-27T16:14:47.788Z,101785.39
2018-09-27T16:17:15.951Z,101783.02
2018-09-27T16:19:44.126Z,101783.35
2018-09-27T16:22:12.361Z,101775.42
2018-09-27T16:24:40.643Z,101770.58
2018-09-27T16:27:09.051Z,101767.03
2018-09-27T16:29:37.271Z,101767.85
2018-09-27T16:32:05.596Z,101767.17
2018-09-27T16:34:33.788Z,101766.84
2018-09-27T16:37:02.044Z,101768.50
2018-09-27T16:39:30.672Z,101770.47
2018-09-27T16:41:58.954Z,101766.44
2018-09-27T16:44:27.151Z,101772.05
2018-09-27T16:46:55.338Z,101764.14
2018-09-27T16:49:23.630Z,101767.60
2018-09-27T16:51:51.871Z,101768.91
2018-09-27T16:54:20.075Z,101773.40
2018-09-27T16:56:48.302Z,101768.63
2018-09-27T16:59:16.520Z,101762.39
2018-09-27T17:01:44.898Z,101762.31
2018-09-27T17:04:13.115Z,101757.91
2018-09-27T17:06:41.300Z,101758.33
2018-09-27T17:09:10.103Z,101754.73
2018-09-27T17:11:38.460Z,101749.82
2018-09-27T17:14:06.843Z,101755.09
2018-09-27T17:16:35.268Z,101755.03
2018-09-27T17:19:04.218Z,101755.44
2018-09-27T17:21:32.583Z,101748.84
2018-09-27T17:24:00.765Z,101747.55
2018-09-27T17:26:28.971Z,101754.16
2018-09-27T17:28:57.219Z,101750.73
2018-09-27T17:31:25.534Z,101749.77
2018-09-27T17:33:53.775Z,101748.86
2018-09-27T17:36:22.018Z,101747.23
2018-09-27T17:38:50.351Z,101748.34
2018-09-27T17:41:18.614Z,101749.55
2018-09-27T17:43:46.897Z,101747.64
2018-09-27T17:46:15.121Z,101752.92
2018-09-27T17:48:43.499Z,101753.00
2018-09-27T17:51:11.698Z,101756.42
2018-09-27T17:53:40.111Z,101748.14
2018-09-27T17:56:08.308Z,101752.75
2018-09-27T17:58:39.541Z,101748.96
2018-09-27T18:01:07.764Z,101745.20
2018-09-27T18:03:36.119Z,101752.79
2018-09-27T18:06:04.614Z,101749.84
2018-09-27T18:08:33.023Z,101747.63
2018-09-27T18:11:02.462Z,101749.88
2018-09-27T18:13:30.796Z,101753.91
2018-09-27T18:15:59.075Z,101748.89
2018-09-27T18:18:27.413Z,101754.64
2018-09-27T18:20:55.811Z,101752.88
2018-09-27T18:23:24.048Z,101749.86
2018-09-27T18:25:52.345Z,101751.15
2018-09-27T18:28:20.640Z,101748.05
2018-09-27T18:30:49.330Z,101750.29
2018-09-27T18:33:18.085Z,101747.55
2018-09-27T18:35:46.366Z,101744.70
2018-09-27T18:38:14.759Z,101741.81
2018-09-27T18:40:42.960Z,101743.07
2018-09-27T18:43:11.608Z,101737.66
2018-09-27T18:45:39.701Z,101746.77
2018-09-27T18:48:08.021Z,101741.74
2018-09-27T18:50:36.394Z,101741.39
2018-09-27T18:53:04.623Z,101736.20
2018-09-27T18:55:32.915Z,101744.82
2018-09-27T18:58:01.160Z,101742.92
2018-09-27T19:00:29.702Z,101746.02
2018-09-27T19:02:57.890Z,101743.98
2018-09-27T19:05:30.135Z,101733.38
2018-09-27T19:07:58.385Z,101745.63
2018-09-27T19:10:26.618Z,101743.73
2018-09-27T19:12:54.971Z,101745.91
2018-09-27T19:15:23.942Z,101750.88
2018-09-27T19:17:52.476Z,101744.38
2018-09-27T19:20:21.968Z,101747.31
2018-09-27T19:22:50.344Z,101735.33
2018-09-27T19:25:18.510Z,101738.70
2018-09-27T19:27:46.712Z,101741.72
2018-09-27T19:30:15.360Z,101743.23
2018-09-27T19:32:49.342Z,101736.93
2018-09-27T19:35:17.668Z,101732.71
2018-09-27T19:37:46.110Z,101735.19
2018-09-27T19:40:14.415Z,101732.93
2018-09-27T19:42:42.766Z,101736.57
2018-09-27T19:45:11.100Z,101733.91
2018-09-27T19:47:39.406Z,101739.59
2018-09-27T19:50:07.725Z,101738.80
2018-09-27T19:52:36.318Z,101748.66
2018-09-27T19:55:04.613Z,101745.94
2018-09-27T19:57:32.850Z,101743.84
2018-09-27T20:00:01.190Z,101743.52
2018-09-27T20:02:29.736Z,101748.70
2018-09-27T20:04:58.133Z,101746.03
2018-09-27T20:07:26.323Z,101746.03
2018-09-27T20:09:55.086Z,101746.66
2018-09-27T20:12:25.004Z,101743.53
2018-09-27T20:14:53.466Z,101743.12
2018-09-27T20:17:21.769Z,101740.23
2018-09-27T20:19:49.933Z,101744.97
2018-09-27T20:22:18.233Z,101751.53
2018-09-27T20:24:46.459Z,101752.14
2018-09-27T20:27:14.674Z,101750.81
2018-09-27T20:29:43.108Z,101755.58
2018-09-27T20:32:11.787Z,101754.03
2018-09-27T20:34:40.472Z,101755.09
2018-09-27T20:37:08.628Z,101760.00
2018-09-27T20:39:36.927Z,101755.16
2018-09-27T20:42:05.137Z,101749.48
2018-09-27T20:44:33.434Z,101751.43
2018-09-27T20:47:01.847Z,101754.61
2018-09-27T20:49:30.237Z,101749.55
2018-09-27T20:51:58.894Z,101750.65
2018-09-27T20:54:27.150Z,101749.22
2018-09-27T20:56:55.387Z,101756.26
2018-09-27T20:59:23.636Z,101755.77
2018-09-27T21:01:51.842Z,101757.59
2018-09-27T21:04:20.016Z,101756.67
2018-09-27T21:06:48.204Z,101752.58
2018-09-27T21:09:16.394Z,101757.92
2018-09-27T21:11:44.612Z,101749.39
2018-09-27T21:14:14.517Z,101751.23
2018-09-27T21:16:42.679Z,101747.84
2018-09-27T21:19:11.001Z,101752.81
2018-09-27T21:21:39.260Z,101750.77
2018-09-27T21:24:07.511Z,101756.44
2018-09-27T21:26:35.775Z,101759.45
2018-09-27T21:29:04.003Z,101754.39
2018-09-27T21:31:32.186Z,101758.18
2018-09-27T21:34:00.387Z,101752.59
2018-09-27T21:36:28.589Z,101763.48
2018-09-27T21:38:56.844Z,101759.52
2018-09-27T21:41:25.076Z,101763.27
2018-09-27T21:43:53.248Z,101757.70
2018-09-27T21:46:21.438Z,101760.11
2018-09-27T21:48:49.625Z,101754.91
2018-09-27T21:51:17.880Z,101752.79
2018-09-27T21:53:46.031Z,101752.93
2018-09-27T21:56:14.184Z,101752.80
2018-09-27T21:58:42.600Z,101751.83
2018-09-27T22:01:10.832Z,101751.70
2018-09-27T22:03:39.079Z,101748.94
2018-09-27T22:06:07.245Z,101749.42
2018-09-27T22:08:35.404Z,101744.11
2018-09-27T22:11:03.669Z,101742.06
2018-09-27T22:13:31.926Z,101742.95
2018-09-27T22:16:00.179Z,101743.09
2018-09-27T22:18:28.579Z,101751.55
2018-09-27T22:20:56.783Z,101757.27
2018-09-27T22:23:25.007Z,101758.48
2018-09-27T22:25:53.250Z,101757.64
2018-09-27T22:28:21.497Z,101754.38
2018-09-27T22:30:49.704Z,101753.77
2018-09-27T22:33:17.983Z,101757.52
2018-09-27T22:35:46.204Z,101754.98
2018-09-27T22:38:14.453Z,101753.30
2018-09-27T22:40:42.664Z,101755.95
2018-09-27T22:43:10.915Z,101754.30
2018-09-27T22:45:39.099Z,101755.52
2018-09-27T22:48:07.343Z,101754.19
2018-09-27T22:50:35.566Z,101755.55
2018-09-27T22:53:03.746Z,101760.86
2018-09-27T22:55:31.899Z,101763.40
2018-09-27T22:58:00.092Z,101753.02
2018-09-27T23:00:28.299Z,101753.86
2018-09-27T23:02:56.566Z,101751.69
2018-09-27T23:05:24.874Z,101756.03
2018-09-27T23:07:53.002Z,101753.02
2018-09-27T23:10:21.176Z,101753.26
2018-09-27T23:12:49.533Z,101755.91
2018-09-27T23:15:17.865Z,101751.96
2018-09-27T23:17:46.108Z,101757.27
2018-09-27T23:20:14.438Z,101744.23
2018-09-27T23:22:42.608Z,101742.67
2018-09-27T23:25:10.786Z,101741.82
2018-09-27T23:27:39.055Z,101741.22
2018-09-27T23:30:07.430Z,101740.73
2018-09-27T23:32:36.194Z,101736.39
2018-09-27T23:35:04.742Z,101739.41
2018-09-27T23:37:32.939Z,101740.12
2018-09-27T23:40:01.130Z,101744.96
2018-09-27T23:42:29.388Z,101743.48
2018-09-27T23:44:57.555Z,101739.77
2018-09-27T23:47:25.808Z,101744.72
2018-09-27T23:49:54.050Z,101735.69
2018-09-27T23:52:22.299Z,101730.86
2018-09-27T23:54:50.570Z,101735.53
2018-09-27T23:57:18.834Z,101743.77
2018-09-27T23:59:47.055Z,101739.15
